Aviation Digital Data Service (ADDS)

Output produced by METARs form (1020 UTC 01 November 2014)
found at http://www.aviationweather.gov/adds/metars/
 
KSFO 010906Z 0109/0212 27005KT P6SM FEW020 BKN080 
     FM011100 19006KT P6SM VCSH BKN040 
     FM012100 28014KT P6SM VCSH BKN040 
     FM020300 28009KT P6SM SCT040 BKN080 
     FM020900 31004KT P6SM SCT050 BKN100